Alsey, Illinois
Current Conditions -  °F | °C
As of 3:55 AM on Wednesday 26 Nov 2014 (Local Time) from KIJX Reporting Station
Clear Clear  
Wind Chill: -6°   Ceiling: Unl
Heat Index: -1°   Visibility: 7mi
Dew Point: -3°   Wind: 8mph
Humidity: 87%   Direction: 140°SE
Pressure: 30.08"   Gusts: NA
Location:  39.56°N, 90.43°W
Report Text: KIJX 260955Z AUTO 14007KT 7SM CLR M01/M03 A3008 RMK AO2 T10131032
Loading
Personal Weather Stations






























Interactive Weather Map New forecast layout! Learn more

10-Day Weather Forecast

Advertisements
Track Severe Weather on mobile